Plevna, Montana
Current Conditions -  °F | °C
As of 5:51 AM on Sunday 21 Dec 2014 (Local Time) from KBHK Reporting Station
Clear Clear  
Wind Chill: 12°   Ceiling: Unl
Heat Index: 21°   Visibility: 10mi
Dew Point: 20°   Wind: 7mph
Humidity: 96%   Direction: 110°ESE
Pressure: 29.52"   Gusts: NA
Location:  46.42°N, 104.52°W
Report Text: KBHK 211251Z AUTO 11006KT 10SM CLR M06/M07 A2952 RMK AO2 SLP023 I1000 T10611067
Loading
Personal Weather Stations






























Interactive Weather Map New forecast layout! Learn more

10-Day Weather Forecast

Advertisements
Track Severe Weather on mobile